Koninklijk Nederlands Meteorologisch Instituut; Ministerie van Verkeer en Waterstaat

 
Weer
Nederlandse vliegveldverwachtingen (TAF)
ZCZC
FT292300 EHAM     AMSTERDAM/SCHIPHOL   NLD   -3 m.
TAF EHAM 292248Z 3000/3106 33006KT CAVOK
    BECMG 3008/3011 29012KT SCT020 BKN030
    BECMG 3018/3021 24005KT CAVOK=

ZCZC
FT292300 EHGG     GRONINGEN/EELDE   NLD   5 m.
TAF EHGG 292248Z 3000/3106 35006KT CAVOK
    BECMG 3009/3012 31012KT SCT025
    PROB30 TEMPO 3010/3014 7000 -SHRA -RA FEW020TCU BKN025
    BECMG 3017/3020 30006KT
    PROB30 3101/3106 5000 BR=

ZCZC
FT292300 EHRD     ROTTERDAM/THE HAGUE AIRPORT   NLD   -5 m.
TAF EHRD 292248Z 3000/3106 33006KT CAVOK
    BECMG 3008/3011 29011KT SCT020 BKN030
    BECMG 3018/3021 24005KT CAVOK=

ZCZC
FT292300 EHBK     MAASTRICHT/MAASTRICHT-AACHEN   NLD   114 m.
TAF EHBK 292248Z 3000/3106 35007KT 9000 SCT005 BKN010
    BECMG 3000/3002 5000 BR BKN008
    PROB40 3000/3007 2000 BKN004
    BECMG 3006/3009 9999 NSW SCT020
    PROB30 3103/3106 5000 BR=

ZCZC
FT292300 EHEH     EINDHOVEN/EINDHOVEN   NLD   22 m.
TAF EHEH 292307Z 3000/3106 33008KT CAVOK
    PROB40 3000/3006 SCT010
    BECMG 3021/3024 25004KT=

ZCZC
FC300000 EHWO     WOENSDRECHT/WOENSDRECHT   NLD   19 m.
TAF EHWO 300000Z NIL=

ZCZC
FC300000 EHVK     VOLKEL/VOLKEL   NLD   21 m.
TAF EHVK 300049Z 3001/3013 33008KT CAVOK
    PROB40 3000/3007 SCT010=

ZCZC
FC300000 EHLW     LEEUWARDEN/LEEUWARDEN   NLD   1 m.
TAF EHLW 300000Z NIL=

ZCZC
FC300000 EHGR     GILZE-RIJEN/GILZE-RIJEN   NLD   14 m.
TAF EHGR 300000Z NIL=

ZCZC
FC300100 EHKD     DE KOOY/DE KOOY   NLD   1 m.
TAF EHKD 300050Z 3001/3013 33008KT FEW018=